Time;durP1;ratioP1;P1;durP2;ratioP2;P2;SDS_P1;SDS_P2;PMS_P1;PMS_P2;Temp;Humidity;BMP_temperature;BMP_pressure;BME280_temperature;BME280_humidity;BME280_pressure;Samples;Min_cycle;Max_cycle;Signal;HPM_P1;HPM_P2
2021/12/22 00:00:54;;;;;;;22.02;10.68;;;-0.30;99.90;;;;;;5035601;28;20018;-68
2021/12/22 00:03:21;;;;;;;16.02;9.27;;;-0.60;99.90;;;;;;5032481;28;20124;-69
2021/12/22 00:05:48;;;;;;;19.13;8.98;;;-0.90;99.90;;;;;;5034531;28;20032;-69
2021/12/22 00:08:14;;;;;;;17.88;10.85;;;-1.20;99.90;;;;;;5032047;28;20029;-70
2021/12/22 00:10:41;;;;;;;18.42;9.70;;;-1.50;99.90;;;;;;5035326;28;20045;-69
2021/12/22 00:13:07;;;;;;;17.33;9.75;;;-1.60;99.90;;;;;;5032771;28;20482;-69
2021/12/22 00:15:32;;;;;;;21.23;9.70;;;-1.60;99.90;;;;;;5036690;28;20056;-69
2021/12/22 00:17:58;;;;;;;18.20;10.50;;;-1.80;99.90;;;;;;5036318;28;20367;-69
2021/12/22 00:20:24;;;;;;;20.60;8.77;;;-2.00;99.90;;;;;;5036047;28;20104;-69
2021/12/22 00:22:49;;;;;;;17.67;9.30;;;-2.20;99.90;;;;;;5033779;28;20029;-69
2021/12/22 00:25:16;;;;;;;16.47;9.40;;;-2.20;99.90;;;;;;5033217;28;20013;-69
2021/12/22 00:27:42;;;;;;;17.30;9.68;;;-2.30;99.90;;;;;;5031820;28;20071;-68
2021/12/22 00:30:08;;;;;;;16.00;9.13;;;-2.40;99.90;;;;;;5031754;28;20029;-67
2021/12/22 00:32:36;;;;;;;16.92;9.73;;;-2.50;99.90;;;;;;5032981;28;20041;-67
2021/12/22 00:35:03;;;;;;;20.00;9.48;;;-2.60;99.90;;;;;;5033475;28;20052;-68
2021/12/22 00:37:30;;;;;;;15.88;9.57;;;-2.70;99.90;;;;;;5032989;28;20486;-68
2021/12/22 00:39:58;;;;;;;20.80;10.93;;;-2.70;99.90;;;;;;5031560;28;20076;-68
2021/12/22 00:42:25;;;;;;;16.60;9.32;;;-2.70;99.90;;;;;;5032965;28;20022;-70
2021/12/22 00:44:55;;;;;;;20.85;11.00;;;-2.70;99.90;;;;;;5031526;28;20029;-68
2021/12/22 00:47:23;;;;;;;19.92;9.93;;;-2.60;99.90;;;;;;5034503;28;20478;-68
2021/12/22 00:49:49;;;;;;;17.02;9.75;;;-2.60;99.90;;;;;;5035639;28;20029;-68
2021/12/22 00:52:14;;;;;;;18.17;9.82;;;-2.70;99.90;;;;;;5037164;28;20032;-69
2021/12/22 00:54:40;;;;;;;16.20;9.68;;;-2.70;99.90;;;;;;5047468;28;20061;-69
2021/12/22 00:57:06;;;;;;;17.73;10.37;;;-2.80;99.90;;;;;;5044031;28;20045;-68
2021/12/22 00:59:34;;;;;;;24.40;11.85;;;-2.60;99.90;;;;;;5036990;28;20021;-69
2021/12/22 01:02:02;;;;;;;21.48;11.70;;;-2.70;99.90;;;;;;5036853;28;20087;-68
2021/12/22 01:04:28;;;;;;;18.88;11.05;;;-2.50;99.90;;;;;;5035746;28;20419;-68
2021/12/22 01:06:54;;;;;;;20.77;11.07;;;-2.70;99.90;;;;;;5037089;28;20101;-68
2021/12/22 01:09:20;;;;;;;23.80;11.60;;;-2.70;99.90;;;;;;5037034;28;20096;-68
2021/12/22 01:11:45;;;;;;;20.38;11.57;;;-2.80;99.90;;;;;;5035741;28;20053;-68
2021/12/22 01:14:11;;;;;;;22.20;11.88;;;-2.90;99.90;;;;;;5037775;28;20045;-68
2021/12/22 01:16:37;;;;;;;21.60;11.95;;;-3.00;99.90;;;;;;5035598;28;20060;-68
2021/12/22 01:19:09;;;;;;;18.15;10.02;;;-3.20;99.90;;;;;;5036649;28;20078;-68
2021/12/22 01:21:41;;;;;;;21.77;10.00;;;-3.30;99.90;;;;;;5036472;28;20102;-68
2021/12/22 01:24:15;;;;;;;20.92;11.05;;;-3.40;99.90;;;;;;5035358;28;20022;-69
2021/12/22 01:26:46;;;;;;;25.80;12.35;;;-3.40;99.90;;;;;;5035284;28;20033;-68
2021/12/22 01:29:14;;;;;;;21.50;11.68;;;-3.50;99.90;;;;;;5034976;28;20087;-68
2021/12/22 01:31:41;;;;;;;18.00;10.65;;;-3.50;99.90;;;;;;5034912;28;20034;-69
2021/12/22 01:34:07;;;;;;;17.42;10.20;;;-3.50;99.90;;;;;;5036146;28;20075;-69
2021/12/22 01:36:32;;;;;;;23.20;11.80;;;-3.50;99.90;;;;;;5036254;28;20025;-68
2021/12/22 01:38:58;;;;;;;22.08;11.90;;;-3.30;99.90;;;;;;5036126;28;20025;-69
2021/12/22 01:41:24;;;;;;;20.70;11.00;;;-3.40;99.90;;;;;;5036254;28;20466;-69
2021/12/22 01:43:50;;;;;;;23.42;11.73;;;-3.40;99.90;;;;;;5036212;28;20109;-68
2021/12/22 01:49:13;;;;;;;20.95;11.57;;;-3.50;99.90;;;;;;5036371;28;20101;-69
2021/12/22 01:52:06;;;;;;;23.42;11.52;;;-3.50;99.90;;;;;;5034595;28;20041;-68
2021/12/22 01:55:05;;;;;;;23.63;11.40;;;-3.50;99.90;;;;;;5035781;28;20490;-68
2021/12/22 01:57:34;;;;;;;26.50;11.77;;;-3.50;99.90;;;;;;5026912;28;20048;-68
2021/12/22 02:00:01;;;;;;;34.80;12.95;;;-3.40;99.90;;;;;;5033239;28;20079;-68
2021/12/22 02:02:28;;;;;;;26.17;12.85;;;-3.10;99.90;;;;;;5034382;28;20482;-68
2021/12/22 02:04:54;;;;;;;23.25;12.05;;;-2.90;99.90;;;;;;5035998;28;20092;-68
2021/12/22 02:07:20;;;;;;;27.33;13.07;;;-2.80;99.90;;;;;;5034235;28;20590;-68
2021/12/22 02:12:29;;;;;;;27.85;11.70;;;-2.70;99.90;;;;;;5036116;28;20052;-69
2021/12/22 02:14:55;;;;;;;24.65;12.35;;;-2.80;99.90;;;;;;5035341;28;20076;-69
2021/12/22 02:17:20;;;;;;;21.30;11.60;;;-2.90;99.90;;;;;;5035430;28;20132;-68
2021/12/22 02:19:47;;;;;;;31.27;12.70;;;-2.70;99.90;;;;;;5035122;28;20040;-68
2021/12/22 02:22:16;;;;;;;23.90;12.27;;;-2.60;99.90;;;;;;5035229;28;20013;-68
2021/12/22 02:24:51;;;;;;;26.88;11.65;;;-2.60;99.90;;;;;;5033935;28;20029;-68
2021/12/22 02:27:29;;;;;;;26.52;11.73;;;-2.40;99.90;;;;;;5035300;28;20030;-68
2021/12/22 02:29:59;;;;;;;24.08;12.20;;;-2.60;99.90;;;;;;5033814;28;20026;-68
2021/12/22 02:32:57;;;;;;;24.27;12.43;;;-2.70;99.90;;;;;;5035581;28;20071;-69
2021/12/22 02:35:15;;;;;;;22.85;11.70;;;-2.90;99.90;;;;;;5034957;28;20057;-68
2021/12/22 02:37:44;;;;;;;23.80;11.65;;;-2.90;99.90;;;;;;5033795;28;20033;-68
2021/12/22 02:40:14;;;;;;;25.60;12.02;;;-2.80;99.90;;;;;;5035453;28;20112;-69
2021/12/22 02:42:41;;;;;;;24.92;12.98;;;-2.60;99.90;;;;;;5033687;28;20390;-70
2021/12/22 02:45:09;;;;;;;26.95;12.32;;;-2.30;99.90;;;;;;5033516;28;20017;-69
2021/12/22 02:47:34;;;;;;;20.50;11.10;;;-2.20;99.90;;;;;;5034537;28;20025;-69
2021/12/22 02:50:00;;;;;;;20.17;11.27;;;-2.00;99.90;;;;;;5034897;28;20086;-70
2021/12/22 02:52:33;;;;;;;20.45;10.93;;;-2.10;99.90;;;;;;5033502;28;20028;-69
2021/12/22 02:54:59;;;;;;;20.45;11.38;;;-2.20;99.90;;;;;;5033664;28;20026;-69
2021/12/22 02:57:33;;;;;;;22.90;11.77;;;-2.40;99.90;;;;;;5034582;28;20025;-69
2021/12/22 03:05:08;;;;;;;23.50;12.40;;;-2.50;99.90;;;;;;5034872;28;20021;-68
2021/12/22 03:07:34;;;;;;;25.90;13.10;;;-2.60;99.90;;;;;;5034561;28;20085;-68
2021/12/22 03:10:06;;;;;;;22.83;12.10;;;-2.70;99.90;;;;;;5034416;28;20502;-68
2021/12/22 03:12:35;;;;;;;21.05;10.65;;;-2.80;99.90;;;;;;5034317;28;20033;-68
2021/12/22 03:15:03;;;;;;;21.88;11.77;;;-2.90;99.90;;;;;;5033034;28;20021;-68
2021/12/22 03:17:29;;;;;;;21.63;11.77;;;-2.80;99.90;;;;;;5032916;28;20025;-68
2021/12/22 03:19:54;;;;;;;25.40;11.67;;;-2.40;99.90;;;;;;5034152;28;20079;-68
2021/12/22 03:22:21;;;;;;;22.73;12.07;;;-1.90;99.90;;;;;;5033016;28;20075;-68
2021/12/22 03:24:49;;;;;;;20.98;10.88;;;-2.00;99.90;;;;;;5033273;28;20091;-70
2021/12/22 03:27:15;;;;;;;20.75;10.77;;;-2.20;99.90;;;;;;5034288;28;20032;-69
2021/12/22 03:29:42;;;;;;;23.10;11.70;;;-2.40;99.90;;;;;;5040590;28;20456;-69
2021/12/22 03:32:08;;;;;;;22.02;11.25;;;-2.50;99.90;;;;;;5040722;28;20029;-69
2021/12/22 03:34:34;;;;;;;18.27;10.80;;;-2.50;99.90;;;;;;5035680;28;20083;-68
2021/12/22 03:37:00;;;;;;;22.98;11.93;;;-2.60;99.90;;;;;;5034378;28;20394;-68
2021/12/22 03:39:27;;;;;;;23.20;11.57;;;-2.60;99.90;;;;;;5034433;28;20033;-70
2021/12/22 03:41:53;;;;;;;22.50;12.07;;;-2.70;99.90;;;;;;5034284;28;20021;-69
2021/12/22 03:44:19;;;;;;;21.35;11.45;;;-2.70;99.90;;;;;;5032931;28;20500;-69
2021/12/22 03:46:45;;;;;;;24.77;12.43;;;-2.80;99.90;;;;;;5034583;28;20355;-71
2021/12/22 03:49:13;;;;;;;22.55;11.38;;;-2.90;99.90;;;;;;5034288;28;20267;-71
2021/12/22 03:51:39;;;;;;;21.75;11.43;;;-2.90;99.90;;;;;;5032699;28;20037;-68
2021/12/22 03:54:06;;;;;;;22.80;11.57;;;-3.00;99.90;;;;;;5034607;28;20497;-70
2021/12/22 03:56:32;;;;;;;22.42;11.98;;;-3.00;99.90;;;;;;5035391;28;20102;-69
2021/12/22 03:58:58;;;;;;;22.85;11.68;;;-3.10;99.90;;;;;;5033838;28;20056;-69
2021/12/22 04:01:24;;;;;;;25.33;11.83;;;-3.10;99.90;;;;;;5033565;28;20031;-69
2021/12/22 04:03:53;;;;;;;26.90;11.85;;;-3.20;99.90;;;;;;5033755;28;20025;-69
2021/12/22 04:06:19;;;;;;;23.48;12.60;;;-3.20;99.90;;;;;;5032048;28;20091;-69
2021/12/22 04:08:45;;;;;;;24.05;11.80;;;-3.30;99.90;;;;;;5033477;28;20029;-69
2021/12/22 04:11:11;;;;;;;27.40;13.50;;;-3.40;99.90;;;;;;5033515;28;20104;-69
2021/12/22 04:13:36;;;;;;;24.13;12.17;;;-3.50;99.90;;;;;;5033843;28;20076;-69
2021/12/22 04:16:02;;;;;;;21.87;10.77;;;-3.50;99.90;;;;;;5032099;28;20025;-69
2021/12/22 04:18:28;;;;;;;25.27;12.90;;;-3.30;99.90;;;;;;5031908;28;20025;-69
2021/12/22 04:20:54;;;;;;;24.60;13.60;;;-3.30;99.90;;;;;;5033553;28;20033;-70
2021/12/22 04:23:19;;;;;;;25.33;12.45;;;-3.40;99.90;;;;;;5033143;28;20025;-69
2021/12/22 04:25:46;;;;;;;24.07;11.93;;;-3.40;99.90;;;;;;5033309;28;20112;-69
2021/12/22 04:28:12;;;;;;;21.17;12.23;;;-3.50;99.90;;;;;;5031637;28;20029;-69
2021/12/22 04:30:49;;;;;;;22.70;11.38;;;-3.60;99.90;;;;;;5033250;28;20022;-69
2021/12/22 04:33:16;;;;;;;27.20;12.38;;;-3.60;99.90;;;;;;5033194;28;20081;-69
2021/12/22 04:35:42;;;;;;;25.30;12.45;;;-3.60;99.90;;;;;;5031794;28;20474;-69
2021/12/22 04:38:08;;;;;;;24.63;12.82;;;-3.60;99.90;;;;;;5031597;28;20041;-69
2021/12/22 04:40:34;;;;;;;22.60;12.40;;;-3.40;99.90;;;;;;5032472;28;20096;-70
2021/12/22 04:42:59;;;;;;;24.08;11.95;;;-3.30;99.90;;;;;;5033754;28;20108;-69
2021/12/22 04:45:25;;;;;;;22.60;12.00;;;-3.40;99.90;;;;;;5033081;28;20079;-69
2021/12/22 04:47:51;;;;;;;24.63;11.97;;;-3.40;99.90;;;;;;5032727;28;20148;-69
2021/12/22 04:50:19;;;;;;;26.10;12.73;;;-3.40;99.90;;;;;;5032950;28;20272;-69
2021/12/22 04:52:56;;;;;;;24.67;12.48;;;-3.40;99.90;;;;;;5033584;28;20055;-69
2021/12/22 04:55:25;;;;;;;25.83;12.50;;;-3.40;99.90;;;;;;5033348;28;20393;-69
2021/12/22 04:57:52;;;;;;;24.40;12.50;;;-3.20;99.90;;;;;;5032922;28;20029;-69
2021/12/22 05:00:18;;;;;;;24.10;12.90;;;-3.20;99.90;;;;;;5031343;28;20036;-69
2021/12/22 05:02:44;;;;;;;24.85;12.32;;;-3.20;99.90;;;;;;5033070;28;20078;-69
2021/12/22 05:05:10;;;;;;;26.98;12.68;;;-3.20;99.90;;;;;;5032820;28;20053;-69
2021/12/22 05:07:35;;;;;;;28.95;12.10;;;-3.20;99.90;;;;;;5032698;28;20022;-69
2021/12/22 05:10:01;;;;;;;25.53;12.30;;;-3.20;99.90;;;;;;5033244;28;20041;-69
2021/12/22 05:12:27;;;;;;;25.13;11.95;;;-3.20;99.90;;;;;;5033123;28;20390;-68
2021/12/22 05:14:53;;;;;;;24.70;11.97;;;-3.10;99.90;;;;;;5033163;28;20044;-69
2021/12/22 05:17:24;;;;;;;25.97;13.10;;;-3.10;99.90;;;;;;5032842;28;20025;-68
2021/12/22 05:19:50;;;;;;;24.67;12.18;;;-3.10;99.90;;;;;;5033171;28;20752;-68
2021/12/22 05:22:15;;;;;;;20.63;10.27;;;-3.10;99.90;;;;;;5033005;28;20030;-69
2021/12/22 05:24:41;;;;;;;20.90;10.67;;;-3.20;99.90;;;;;;5032853;28;20057;-70
2021/12/22 05:27:08;;;;;;;21.07;10.80;;;-3.40;99.90;;;;;;5032880;28;20025;-70
2021/12/22 05:29:34;;;;;;;21.15;11.70;;;-3.50;99.90;;;;;;5031409;28;20080;-68
2021/12/22 05:32:03;;;;;;;23.48;12.00;;;-3.60;99.90;;;;;;5032772;28;20028;-69
2021/12/22 05:34:29;;;;;;;26.17;12.85;;;-3.80;99.90;;;;;;5036505;28;20022;-69
2021/12/22 05:36:55;;;;;;;25.47;11.60;;;-3.90;99.90;;;;;;5036530;28;20032;-70
2021/12/22 05:39:21;;;;;;;25.13;12.43;;;-3.90;99.90;;;;;;5036145;28;20478;-69
2021/12/22 05:41:47;;;;;;;22.48;11.02;;;-4.00;99.90;;;;;;5034882;28;20072;-70
2021/12/22 05:44:12;;;;;;;28.10;12.57;;;-4.00;99.90;;;;;;5034822;28;20052;-69
2021/12/22 05:46:38;;;;;;;22.83;11.53;;;-4.00;99.90;;;;;;5034580;28;20060;-69
2021/12/22 05:49:04;;;;;;;24.73;12.07;;;-3.90;99.90;;;;;;5034501;28;20063;-69
2021/12/22 05:51:33;;;;;;;23.48;12.32;;;-3.90;99.90;;;;;;5035941;28;20026;-68
2021/12/22 05:53:58;;;;;;;24.10;12.73;;;-3.90;99.90;;;;;;5035882;28;20021;-68
2021/12/22 05:56:26;;;;;;;23.93;11.93;;;-3.90;99.90;;;;;;5036014;28;20394;-67
2021/12/22 05:58:53;;;;;;;26.52;12.52;;;-3.90;99.90;;;;;;5036404;28;20022;-68
2021/12/22 06:01:18;;;;;;;20.05;10.60;;;-3.90;99.90;;;;;;5035986;28;20021;-68
2021/12/22 06:03:44;;;;;;;26.60;12.20;;;-4.00;99.90;;;;;;5039293;28;20516;-67
2021/12/22 06:06:11;;;;;;;22.07;11.27;;;-4.00;99.90;;;;;;5047104;28;20535;-67
2021/12/22 06:08:37;;;;;;;22.95;11.57;;;-4.10;99.90;;;;;;5035890;28;20021;-67
2021/12/22 06:11:02;;;;;;;22.05;11.40;;;-4.10;99.90;;;;;;5034305;28;20501;-67
2021/12/22 06:13:28;;;;;;;28.33;14.15;;;-4.30;99.90;;;;;;5035644;28;20034;-66
2021/12/22 06:15:54;;;;;;;29.70;12.48;;;-4.30;99.90;;;;;;5035920;28;20116;-67
2021/12/22 06:18:20;;;;;;;57.10;21.13;;;-4.40;99.90;;;;;;5036559;28;20040;-67
2021/12/22 06:20:45;;;;;;;39.77;17.20;;;-4.50;99.90;;;;;;5034727;28;20022;-69
2021/12/22 06:23:11;;;;;;;19.63;9.90;;;-4.50;99.90;;;;;;5035670;28;20430;-69
2021/12/22 06:25:37;;;;;;;19.75;10.88;;;-4.50;99.90;;;;;;5035429;28;20024;-69
2021/12/22 06:28:04;;;;;;;22.10;11.35;;;-4.20;99.90;;;;;;5035583;28;20478;-69
2021/12/22 06:30:30;;;;;;;26.25;12.15;;;-4.20;99.90;;;;;;5034387;28;20086;-68
2021/12/22 06:32:56;;;;;;;22.98;12.70;;;-4.20;99.90;;;;;;5034598;28;20029;-71
2021/12/22 06:35:22;;;;;;;21.25;10.90;;;-4.30;99.90;;;;;;5034231;28;20394;-68
2021/12/22 06:37:48;;;;;;;21.73;11.15;;;-4.40;99.90;;;;;;5034081;28;20466;-68
2021/12/22 06:40:15;;;;;;;26.13;12.05;;;-4.50;99.90;;;;;;5035319;28;20032;-68
2021/12/22 06:42:41;;;;;;;24.38;11.90;;;-4.50;99.90;;;;;;5035405;28;20084;-67
2021/12/22 06:45:08;;;;;;;24.55;11.63;;;-4.50;99.90;;;;;;5035018;28;20026;-67
2021/12/22 06:47:35;;;;;;;23.60;11.80;;;-4.50;99.90;;;;;;5035449;28;20033;-67
2021/12/22 06:50:01;;;;;;;25.90;12.82;;;-4.50;99.90;;;;;;5035410;28;20037;-67
2021/12/22 06:52:27;;;;;;;24.92;12.13;;;-4.50;99.90;;;;;;5036636;28;20064;-68
2021/12/22 06:54:52;;;;;;;22.47;11.83;;;-4.50;99.90;;;;;;5036531;28;20048;-68
2021/12/22 06:57:20;;;;;;;26.77;12.83;;;-4.50;99.90;;;;;;5035455;28;20029;-68
2021/12/22 06:59:47;;;;;;;26.02;12.27;;;-4.50;99.90;;;;;;5035110;28;20374;-68
2021/12/22 07:02:13;;;;;;;27.60;11.95;;;-4.50;99.90;;;;;;5034868;28;20026;-67
2021/12/22 07:04:38;;;;;;;31.90;13.95;;;-4.60;99.90;;;;;;5035075;28;20025;-67
2021/12/22 07:07:04;;;;;;;29.90;13.90;;;-4.60;99.90;;;;;;5035167;28;20485;-67
2021/12/22 07:09:30;;;;;;;32.00;13.35;;;-4.50;99.90;;;;;;5034160;28;20091;-67
2021/12/22 07:11:55;;;;;;;31.80;13.23;;;-4.60;99.90;;;;;;5035110;28;20034;-68
2021/12/22 07:14:21;;;;;;;28.23;13.45;;;-4.60;99.90;;;;;;5035742;28;20565;-67
2021/12/22 07:16:48;;;;;;;29.67;13.65;;;-4.60;99.90;;;;;;5036360;28;20060;-68
2021/12/22 07:19:14;;;;;;;29.77;13.27;;;-4.60;99.90;;;;;;5036410;28;20472;-68
2021/12/22 07:21:40;;;;;;;26.45;12.43;;;-4.70;99.90;;;;;;5036109;28;20540;-67
2021/12/22 07:24:06;;;;;;;24.45;11.77;;;-4.70;99.90;;;;;;5034877;28;20057;-68
2021/12/22 07:26:32;;;;;;;26.00;13.35;;;-4.70;99.90;;;;;;5033956;28;20474;-68
2021/12/22 07:28:57;;;;;;;27.02;11.88;;;-4.40;99.90;;;;;;5034614;28;20088;-67
2021/12/22 07:31:23;;;;;;;26.40;11.83;;;-4.20;99.90;;;;;;5034016;28;20096;-67
2021/12/22 07:34:00;;;;;;;24.52;11.25;;;-4.00;99.90;;;;;;5034649;28;20263;-66
2021/12/22 07:36:25;;;;;;;25.90;12.68;;;-3.90;99.90;;;;;;5032872;28;20029;-67
2021/12/22 07:39:00;;;;;;;27.45;12.50;;;-3.70;99.90;;;;;;5034083;28;20026;-66
2021/12/22 07:41:27;;;;;;;30.05;12.48;;;-3.80;99.90;;;;;;5035668;28;20037;-67
2021/12/22 07:43:53;;;;;;;;;;;-3.90;99.90;;;;;;5033598;28;20025;-67
2021/12/22 07:46:19;;;;;;;29.30;11.63;;;-4.00;99.90;;;;;;5034091;28;20053;-66
2021/12/22 07:48:45;;;;;;;;;;;-3.90;99.90;;;;;;5034676;28;20033;-67
2021/12/22 07:51:12;;;;;;;24.58;10.65;;;-3.80;99.90;;;;;;5033909;28;20401;-66
2021/12/22 07:53:37;;;;;;;33.55;14.02;;;-3.60;99.90;;;;;;5032292;28;20036;-67
2021/12/22 07:56:03;;;;;;;31.13;14.73;;;-3.70;99.90;;;;;;5032623;28;20105;-66
2021/12/22 07:58:29;;;;;;;31.98;13.98;;;-3.60;99.90;;;;;;5033126;28;20322;-67
2021/12/22 08:00:56;;;;;;;34.13;14.10;;;-3.50;99.90;;;;;;5033417;28;20040;-67
2021/12/22 08:03:23;;;;;;;44.83;16.63;;;-3.30;99.90;;;;;;5032339;28;20029;-67
2021/12/22 08:05:49;;;;;;;27.23;13.15;;;-3.30;99.90;;;;;;5032387;28;20021;-67
2021/12/22 08:08:17;;;;;;;33.30;15.00;;;-2.90;99.90;;;;;;5033702;28;20474;-68
2021/12/22 08:10:43;;;;;;;33.15;14.23;;;-2.80;99.90;;;;;;5033460;28;20037;-66
2021/12/22 08:13:09;;;;;;;29.90;14.68;;;-2.80;99.90;;;;;;5033503;28;20045;-66
2021/12/22 08:15:34;;;;;;;34.07;14.97;;;-2.90;99.90;;;;;;5031913;28;20061;-67
2021/12/22 08:18:00;;;;;;;32.80;14.70;;;-2.80;99.90;;;;;;5033208;28;20256;-67
2021/12/22 08:20:25;;;;;;;33.60;14.43;;;-2.80;99.90;;;;;;5033810;28;20036;-68
2021/12/22 08:22:51;;;;;;;34.93;14.20;;;-3.00;99.90;;;;;;5034160;28;20029;-67
2021/12/22 08:25:17;;;;;;;34.45;15.55;;;-3.00;99.90;;;;;;5032417;28;20659;-67
2021/12/22 08:27:43;;;;;;;37.45;16.38;;;-2.90;99.90;;;;;;5031966;28;20486;-67
2021/12/22 08:30:09;;;;;;;41.20;17.70;;;-2.80;99.90;;;;;;5033275;28;20108;-67
2021/12/22 08:32:35;;;;;;;44.67;16.85;;;-2.70;99.90;;;;;;5033057;28;20274;-67
2021/12/22 08:35:03;;;;;;;37.25;15.77;;;-2.40;99.90;;;;;;5033073;28;20508;-67
2021/12/22 08:40:16;;;;;;;39.95;16.65;;;-2.50;99.90;;;;;;5036132;28;20033;-66
2021/12/22 08:42:43;;;;;;;38.47;16.92;;;-2.40;99.90;;;;;;5031457;28;20422;-67
2021/12/22 08:45:11;;;;;;;39.25;16.33;;;-2.40;99.90;;;;;;5032703;28;20022;-67
2021/12/22 08:47:37;;;;;;;40.75;18.10;;;-2.40;99.90;;;;;;5032643;28;20104;-67
2021/12/22 08:50:04;;;;;;;41.03;17.33;;;-2.40;99.90;;;;;;5031965;28;20029;-70
2021/12/22 08:52:30;;;;;;;40.25;17.52;;;-2.50;99.90;;;;;;5036236;28;20033;-70
2021/12/22 08:54:55;;;;;;;45.13;17.20;;;-2.50;99.90;;;;;;5035251;28;20030;-70
2021/12/22 08:57:21;;;;;;;43.93;19.40;;;-2.50;99.90;;;;;;5034383;28;20119;-69
2021/12/22 08:59:47;;;;;;;43.30;17.93;;;-2.40;99.90;;;;;;5032947;28;20033;-68
2021/12/22 09:02:13;;;;;;;40.35;17.98;;;-2.40;99.90;;;;;;5034045;28;20018;-68
2021/12/22 09:04:38;;;;;;;40.90;17.60;;;-2.30;99.90;;;;;;5033573;28;20459;-68
2021/12/22 09:07:04;;;;;;;41.00;17.80;;;-2.40;99.90;;;;;;5033355;28;20284;-68
2021/12/22 09:09:30;;;;;;;42.38;18.33;;;-2.30;99.90;;;;;;5037073;28;20348;-68
2021/12/22 09:11:56;;;;;;;43.80;17.08;;;-2.20;99.90;;;;;;5038640;28;20072;-68
2021/12/22 09:14:22;;;;;;;46.47;18.37;;;-2.10;99.90;;;;;;5038699;28;20030;-68
2021/12/22 09:16:48;;;;;;;37.80;18.02;;;-2.20;99.90;;;;;;5037657;28;20496;-68
2021/12/22 09:19:15;;;;;;;41.95;17.85;;;-2.30;99.90;;;;;;5036389;28;20063;-68
2021/12/22 09:21:41;;;;;;;;;;;-2.20;99.90;;;;;;5037630;28;20026;-68
2021/12/22 09:24:07;;;;;;;44.08;18.67;;;-2.30;99.90;;;;;;5036887;28;19905;-68
2021/12/22 09:26:33;;;;;;;42.78;18.77;;;-2.30;99.90;;;;;;5037250;28;20029;-67
2021/12/22 09:28:59;;;;;;;47.60;18.50;;;-2.30;99.90;;;;;;5036697;28;20017;-68
2021/12/22 09:31:26;;;;;;;40.65;19.05;;;-2.20;99.90;;;;;;5036632;28;20017;-67
2021/12/22 09:33:52;;;;;;;57.42;24.05;;;-2.30;99.90;;;;;;5036656;28;20375;-68
2021/12/22 09:36:19;;;;;;;45.65;19.35;;;-2.20;99.90;;;;;;5036698;28;20028;-71
2021/12/22 09:38:44;;;;;;;43.75;20.65;;;-2.20;99.90;;;;;;5035174;28;20497;-66
2021/12/22 09:41:12;;;;;;;44.43;19.10;;;-2.20;99.90;;;;;;5036356;28;20034;-65
2021/12/22 09:43:38;;;;;;;40.17;17.85;;;-2.20;99.90;;;;;;5036290;28;20021;-68
2021/12/22 09:46:08;;;;;;;44.70;19.40;;;-2.20;99.90;;;;;;5035495;28;20033;-67
2021/12/22 09:53:39;;;;;;;43.47;19.98;;;-1.90;99.90;;;;;;5035845;28;20047;-67
2021/12/22 09:56:05;;;;;;;42.47;19.45;;;-1.80;99.90;;;;;;5035886;28;20437;-68
2021/12/22 09:58:32;;;;;;;39.97;19.42;;;-1.70;99.90;;;;;;5035577;28;20049;-68
2021/12/22 10:00:58;;;;;;;;;;;-1.40;99.90;;;;;;5034306;28;20196;-68
2021/12/22 10:03:25;;;;;;;42.15;18.50;;;-1.20;99.90;;;;;;5035434;28;19944;-69
2021/12/22 10:05:51;;;;;;;42.47;17.33;;;-1.20;99.90;;;;;;5035597;28;20021;-68
2021/12/22 10:08:20;;;;;;;38.80;17.70;;;-1.10;99.90;;;;;;5035471;28;20028;-68
2021/12/22 10:10:59;;;;;;;37.83;18.20;;;-0.90;99.90;;;;;;5035174;28;20105;-67
2021/12/22 10:13:29;;;;;;;34.97;16.80;;;-0.80;99.90;;;;;;5035458;28;20497;-67
2021/12/22 10:15:57;;;;;;;38.47;17.45;;;-0.50;99.90;;;;;;5034959;28;20060;-68
2021/12/22 10:18:28;;;;;;;39.97;18.48;;;-0.80;99.90;;;;;;5035235;28;20022;-68
2021/12/22 10:21:09;;;;;;;35.05;17.88;;;-0.90;99.90;;;;;;5034688;28;20025;-68
2021/12/22 10:23:35;;;;;;;35.60;16.98;;;-0.90;99.90;;;;;;5035886;28;20021;-67
2021/12/22 10:26:16;;;;;;;38.45;17.40;;;-0.80;99.90;;;;;;5035239;28;20026;-67
2021/12/22 10:29:07;;;;;;;42.20;18.88;;;-0.80;99.90;;;;;;5036368;28;20037;-68
2021/12/22 10:31:53;;;;;;;36.72;16.90;;;-0.90;99.90;;;;;;5036638;28;20032;-68
2021/12/22 10:34:19;;;;;;;34.58;17.33;;;-1.00;99.90;;;;;;5035993;28;20021;-68
2021/12/22 10:36:57;;;;;;;41.10;18.30;;;-1.00;99.90;;;;;;5034689;28;20021;-68
2021/12/22 10:39:30;;;;;;;43.50;19.25;;;-1.00;99.90;;;;;;5032932;28;20037;-69
2021/12/22 10:42:03;;;;;;;43.28;18.15;;;-1.00;99.90;;;;;;5035017;28;20589;-67
2021/12/22 10:44:36;;;;;;;38.15;17.67;;;-1.10;99.90;;;;;;5034859;28;20419;-68
2021/12/22 10:49:14;;;;;;;43.00;18.83;;;-1.20;99.90;;;;;;5034546;28;20083;-69
2021/12/22 10:50:24;;;;;;;39.20;17.88;;;-1.30;99.90;;;;;;5034324;28;20493;-68
2021/12/22 10:52:50;;;;;;;34.25;16.73;;;-1.20;99.90;;;;;;5034449;28;20052;-69
2021/12/22 10:55:16;;;;;;;35.65;18.15;;;-1.10;99.90;;;;;;5034502;28;20021;-68
2021/12/22 10:57:44;;;;;;;40.93;18.67;;;-1.10;99.90;;;;;;5034104;28;20033;-69
2021/12/22 11:00:19;;;;;;;39.45;17.98;;;-1.00;99.90;;;;;;5033638;28;20296;-69
2021/12/22 11:03:00;;;;;;;36.22;17.23;;;-1.00;99.90;;;;;;5033384;28;20094;-69
2021/12/22 11:05:29;;;;;;;38.25;17.67;;;-1.00;99.90;;;;;;5034479;28;20500;-69
2021/12/22 11:07:55;;;;;;;43.33;19.48;;;-1.10;99.90;;;;;;5034644;28;20021;-70
2021/12/22 11:10:29;;;;;;;38.38;17.38;;;-0.90;99.90;;;;;;5037024;28;20028;-69
2021/12/22 11:13:03;;;;;;;34.40;17.80;;;-1.00;99.90;;;;;;5037066;28;20498;-70
2021/12/22 11:15:30;;;;;;;38.17;17.08;;;-1.10;99.90;;;;;;5033924;28;20026;-69
2021/12/22 11:17:55;;;;;;;43.67;20.85;;;-0.90;99.90;;;;;;5034008;28;20025;-67
2021/12/22 11:20:23;;;;;;;42.97;18.13;;;-0.80;99.90;;;;;;5033928;28;20099;-68
2021/12/22 11:22:58;;;;;;;45.10;19.73;;;-0.80;99.90;;;;;;5033945;28;20093;-69
2021/12/22 11:25:24;;;;;;;37.40;17.98;;;-0.90;99.90;;;;;;5033885;28;20078;-69
2021/12/22 11:27:51;;;;;;;39.72;18.17;;;-0.90;99.90;;;;;;5034408;28;20473;-68
2021/12/22 11:30:17;;;;;;;40.75;19.77;;;-1.00;99.90;;;;;;5036537;28;20132;-68
2021/12/22 11:32:43;;;;;;;41.20;20.10;;;-1.00;99.90;;;;;;5035122;28;20052;-68
2021/12/22 11:35:12;;;;;;;39.40;18.80;;;-1.00;99.90;;;;;;5034424;28;20036;-69
2021/12/22 11:37:38;;;;;;;42.78;19.77;;;-1.00;99.90;;;;;;5033899;28;20081;-69
2021/12/22 11:40:08;;;;;;;42.58;19.17;;;-1.00;99.90;;;;;;5033792;28;20083;-69
2021/12/22 11:42:38;;;;;;;37.35;18.70;;;-0.80;99.90;;;;;;5033930;28;20021;-69
2021/12/22 11:45:25;;;;;;;39.85;19.88;;;-0.70;99.90;;;;;;5033795;28;20032;-68
2021/12/22 11:47:53;;;;;;;;;;;-0.50;99.90;;;;;;5034063;28;20116;-69
2021/12/22 11:50:19;;;;;;;;;;;-0.40;99.90;;;;;;5034181;28;19905;-69
2021/12/22 11:53:02;;;;;;;46.30;18.98;;;-0.40;99.90;;;;;;5033971;28;19905;-69
2021/12/22 11:55:48;;;;;;;42.00;20.45;;;-0.60;99.90;;;;;;5032968;28;20021;-69
2021/12/22 11:58:19;;;;;;;40.20;19.73;;;-0.70;99.90;;;;;;5030945;28;20052;-70
2021/12/22 12:01:09;;;;;;;39.60;18.85;;;-0.70;99.90;;;;;;5033591;28;20021;-71
2021/12/22 12:03:46;;;;;;;44.50;19.50;;;-0.70;99.90;;;;;;5033486;28;20017;-71
2021/12/22 12:06:25;;;;;;;41.08;18.98;;;-0.50;99.90;;;;;;5033207;28;20063;-71
2021/12/22 12:08:57;;;;;;;41.08;18.58;;;-0.60;99.90;;;;;;5031889;28;20517;-71
2021/12/22 12:12:15;;;;;;;50.08;22.10;;;-0.50;99.90;;;;;;5033462;28;20021;-69
2021/12/22 12:14:54;;;;;;;40.80;19.83;;;-0.40;99.90;;;;;;5032046;28;20100;-69
2021/12/22 12:23:34;;;;;;;50.78;19.90;;;-0.30;99.90;;;;;;5033672;28;20024;-69
2021/12/22 12:26:05;;;;;;;41.42;19.90;;;-0.40;99.90;;;;;;5032948;28;20105;-69
2021/12/22 12:28:48;;;;;;;43.08;21.67;;;-0.50;99.90;;;;;;5035275;28;20026;-70
2021/12/22 12:31:14;;;;;;;44.83;20.75;;;-0.50;99.90;;;;;;5034708;28;20033;-70
2021/12/22 12:33:45;;;;;;;47.17;20.70;;;-0.60;99.90;;;;;;5032816;28;20048;-70
2021/12/22 12:36:17;;;;;;;51.60;21.58;;;-0.70;99.90;;;;;;5033680;28;20026;-71
2021/12/22 12:39:01;;;;;;;44.95;21.63;;;-0.70;99.90;;;;;;5032892;28;20172;-70
2021/12/22 12:41:32;;;;;;;43.63;21.38;;;-0.80;99.90;;;;;;5033081;28;20106;-69
2021/12/22 12:44:02;;;;;;;46.80;22.83;;;-0.80;99.90;;;;;;5033935;28;20037;-69
2021/12/22 12:46:37;;;;;;;49.58;22.05;;;-0.90;99.90;;;;;;5032703;28;20036;-69
2021/12/22 12:49:03;;;;;;;43.85;20.55;;;-0.90;99.90;;;;;;5032699;28;20032;-69
2021/12/22 12:51:35;;;;;;;41.33;18.83;;;-1.00;99.90;;;;;;5033640;28;20017;-69
2021/12/22 12:54:07;;;;;;;50.63;20.88;;;-1.00;99.90;;;;;;5033256;28;20025;-70
2021/12/22 12:56:40;;;;;;;44.45;20.27;;;-0.90;99.90;;;;;;5033618;28;20053;-69
2021/12/22 12:59:11;;;;;;;48.40;21.88;;;-0.60;99.90;;;;;;5033022;28;20473;-70
2021/12/22 13:01:50;;;;;;;45.03;21.52;;;-0.50;99.90;;;;;;5032625;28;20028;-70